createdAt,value
2022-12-08T00:00:31.993Z,0.00
2022-12-08T00:01:32.528Z,0.00
2022-12-08T00:02:32.124Z,0.00
2022-12-08T00:03:32.147Z,0.00
2022-12-08T00:04:32.055Z,0.00
2022-12-08T00:05:31.947Z,0.00
2022-12-08T00:06:32.029Z,0.00
2022-12-08T00:07:31.913Z,0.00
2022-12-08T00:08:31.888Z,0.00
2022-12-08T00:09:37.891Z,0.00
2022-12-08T00:10:48.820Z,0.00
2022-12-08T00:11:34.532Z,0.00
2022-12-08T00:12:32.608Z,0.00
2022-12-08T00:13:31.874Z,0.00
2022-12-08T00:14:31.888Z,0.00
2022-12-08T00:15:31.821Z,0.00
2022-12-08T00:16:31.882Z,0.00
2022-12-08T00:17:31.812Z,0.00
2022-12-08T00:18:31.761Z,0.00
2022-12-08T00:19:32.759Z,0.00
2022-12-08T00:20:31.820Z,0.00
2022-12-08T00:21:31.865Z,0.00
2022-12-08T00:22:31.753Z,0.00
2022-12-08T00:23:31.723Z,0.00
2022-12-08T00:24:31.713Z,0.00
2022-12-08T00:25:31.717Z,0.00
2022-12-08T00:26:31.761Z,0.00
2022-12-08T00:27:31.688Z,0.00
2022-12-08T00:28:31.681Z,0.00
2022-12-08T00:29:31.653Z,0.00
2022-12-08T00:30:31.676Z,0.00
2022-12-08T00:31:31.709Z,0.00
2022-12-08T00:32:32.610Z,0.00
2022-12-08T00:33:31.616Z,0.00
2022-12-08T00:34:33.520Z,0.00
2022-12-08T00:35:31.613Z,0.00
2022-12-08T00:36:31.644Z,0.00
2022-12-08T00:37:31.589Z,0.00
2022-12-08T00:38:31.630Z,0.00
2022-12-08T00:39:31.549Z,0.00
2022-12-08T00:40:31.580Z,0.00
2022-12-08T00:41:31.575Z,0.00
2022-12-08T00:42:32.637Z,0.00
2022-12-08T00:43:31.559Z,0.00
2022-12-08T00:44:31.492Z,0.00
2022-12-08T00:45:32.530Z,0.00
2022-12-08T00:46:31.560Z,0.00
2022-12-08T00:47:32.663Z,0.00
2022-12-08T00:48:31.477Z,0.00
2022-12-08T00:49:31.466Z,0.00
2022-12-08T00:50:31.526Z,0.00
2022-12-08T00:51:31.577Z,0.00
2022-12-08T00:52:31.558Z,0.00
2022-12-08T00:53:31.454Z,0.00
2022-12-08T00:54:31.441Z,0.00
2022-12-08T00:55:31.393Z,0.00
2022-12-08T00:56:31.385Z,0.00
2022-12-08T00:57:31.421Z,0.00
2022-12-08T00:58:32.018Z,0.00
2022-12-08T00:59:32.091Z,0.00
2022-12-08T01:00:31.334Z,0.00
2022-12-08T01:01:31.370Z,0.00
2022-12-08T01:02:32.118Z,0.00
2022-12-08T01:03:31.474Z,0.00
2022-12-08T01:04:31.353Z,0.00
2022-12-08T01:05:31.328Z,0.00
2022-12-08T01:06:31.322Z,0.00
2022-12-08T01:07:31.995Z,0.00
2022-12-08T01:08:31.273Z,0.00
2022-12-08T01:09:31.256Z,0.00
2022-12-08T01:10:31.219Z,0.00
2022-12-08T01:11:31.247Z,0.00
2022-12-08T01:12:31.253Z,0.00
2022-12-08T01:13:31.238Z,0.00
2022-12-08T01:14:31.184Z,0.00
2022-12-08T01:15:31.190Z,0.00
2022-12-08T01:16:33.096Z,0.00
2022-12-08T01:17:31.157Z,0.00
2022-12-08T01:18:31.138Z,0.00
2022-12-08T01:19:31.195Z,0.00
2022-12-08T01:20:31.118Z,0.00
2022-12-08T01:21:31.195Z,0.00
2022-12-08T01:22:31.083Z,0.00
2022-12-08T01:23:32.520Z,0.00
2022-12-08T01:24:32.066Z,0.00
2022-12-08T01:25:31.591Z,0.00
2022-12-08T01:26:31.980Z,0.00
2022-12-08T01:27:31.115Z,0.00
2022-12-08T01:28:31.597Z,0.00
2022-12-08T01:29:31.043Z,0.00
2022-12-08T01:30:32.174Z,0.00
2022-12-08T01:31:31.580Z,0.00
2022-12-08T01:32:30.976Z,0.00
2022-12-08T01:33:31.008Z,0.00
2022-12-08T01:34:30.955Z,0.00
2022-12-08T01:35:31.080Z,0.00
2022-12-08T01:36:31.625Z,0.00
2022-12-08T01:37:32.008Z,0.00
2022-12-08T01:38:30.915Z,0.00
2022-12-08T01:39:30.896Z,0.00
2022-12-08T01:40:31.493Z,0.00
2022-12-08T01:41:30.885Z,0.00
2022-12-08T01:42:31.120Z,0.00
2022-12-08T01:43:30.864Z,0.00
2022-12-08T01:44:31.481Z,0.00
2022-12-08T01:45:30.862Z,0.00
2022-12-08T01:46:30.909Z,0.00
2022-12-08T01:47:30.898Z,0.00
2022-12-08T01:48:30.980Z,0.00
2022-12-08T01:49:30.811Z,0.00
2022-12-08T01:50:30.896Z,0.00
2022-12-08T01:51:30.804Z,0.00
2022-12-08T01:52:31.518Z,0.00
2022-12-08T01:53:31.592Z,0.00
2022-12-08T01:54:31.574Z,0.00
2022-12-08T01:55:30.794Z,0.00
2022-12-08T01:56:30.704Z,0.00
2022-12-08T01:57:31.594Z,0.00
2022-12-08T01:58:30.712Z,0.00
2022-12-08T01:59:31.486Z,0.00
2022-12-08T02:00:31.133Z,0.00
2022-12-08T02:01:30.904Z,0.00
2022-12-08T02:02:30.768Z,0.00
2022-12-08T02:03:30.665Z,0.00
2022-12-08T02:04:30.638Z,0.00
2022-12-08T02:05:30.609Z,0.00
2022-12-08T02:06:31.606Z,0.00
2022-12-08T02:07:31.086Z,0.00
2022-12-08T02:08:30.687Z,0.00
2022-12-08T02:09:30.553Z,0.00
2022-12-08T02:10:30.549Z,0.00
2022-12-08T02:11:30.546Z,0.00
2022-12-08T02:12:30.527Z,0.00
2022-12-08T02:13:31.482Z,0.00
2022-12-08T02:14:30.551Z,0.00
2022-12-08T02:15:30.602Z,0.00
2022-12-08T02:16:31.589Z,0.00
2022-12-08T02:17:30.493Z,0.00
2022-12-08T02:18:30.457Z,0.00
2022-12-08T02:19:31.659Z,0.00
2022-12-08T02:20:31.466Z,0.00
2022-12-08T02:21:30.434Z,0.00
2022-12-08T02:22:31.083Z,0.00
2022-12-08T02:23:30.422Z,0.00
2022-12-08T02:24:30.418Z,0.00
2022-12-08T02:25:30.391Z,0.00
2022-12-08T02:26:30.377Z,0.00
2022-12-08T02:27:30.451Z,0.00
2022-12-08T02:28:30.427Z,0.00
2022-12-08T02:29:30.358Z,0.00
2022-12-08T02:30:30.395Z,0.00
2022-12-08T02:31:30.512Z,0.00
2022-12-08T02:32:30.355Z,0.00
2022-12-08T02:33:31.059Z,0.00
2022-12-08T02:34:30.308Z,0.00
2022-12-08T02:35:30.299Z,0.00
2022-12-08T02:36:30.276Z,0.00
2022-12-08T02:37:30.270Z,0.00
2022-12-08T02:38:30.255Z,0.00
2022-12-08T02:39:30.255Z,0.00
2022-12-08T02:40:31.066Z,0.00
2022-12-08T02:41:30.278Z,0.00
2022-12-08T02:42:30.356Z,0.00
2022-12-08T02:43:30.211Z,0.00
2022-12-08T02:44:30.960Z,0.00
2022-12-08T02:45:30.207Z,0.00
2022-12-08T02:46:30.257Z,0.00
2022-12-08T02:47:30.168Z,0.00
2022-12-08T02:48:30.142Z,0.00
2022-12-08T02:49:30.144Z,0.00
2022-12-08T02:50:30.181Z,0.00
2022-12-08T02:51:30.115Z,0.00
2022-12-08T02:52:30.105Z,0.00
2022-12-08T02:53:30.112Z,0.00
2022-12-08T02:54:30.213Z,0.00
2022-12-08T02:55:30.120Z,0.00
2022-12-08T02:56:30.064Z,0.00
2022-12-08T02:57:30.050Z,0.00
2022-12-08T02:58:30.039Z,0.00
2022-12-08T02:59:30.304Z,0.00
2022-12-08T03:00:30.060Z,0.00
2022-12-08T03:01:30.683Z,0.00
2022-12-08T03:02:30.016Z,0.00
2022-12-08T03:03:29.989Z,0.00
2022-12-08T03:04:29.972Z,0.00
2022-12-08T03:05:29.987Z,0.00
2022-12-08T03:06:29.985Z,0.00
2022-12-08T03:07:30.549Z,0.00
2022-12-08T03:08:30.635Z,0.00
2022-12-08T03:09:30.548Z,0.00
2022-12-08T03:10:29.913Z,0.00
2022-12-08T03:11:29.905Z,0.00
2022-12-08T03:12:29.913Z,0.00
2022-12-08T03:13:29.911Z,0.00
2022-12-08T03:14:30.453Z,0.00
2022-12-08T03:15:29.884Z,0.00
2022-12-08T03:16:29.966Z,0.00
2022-12-08T03:17:30.484Z,0.00
2022-12-08T03:18:29.825Z,0.00
2022-12-08T03:19:29.831Z,0.00
2022-12-08T03:20:29.841Z,0.00
2022-12-08T03:21:29.788Z,0.00
2022-12-08T03:22:29.876Z,0.00
2022-12-08T03:23:30.481Z,0.00
2022-12-08T03:24:29.797Z,0.00
2022-12-08T03:25:29.769Z,0.00
2022-12-08T03:26:29.738Z,0.00
2022-12-08T03:27:29.784Z,0.00
2022-12-08T03:28:29.709Z,0.00
2022-12-08T03:29:30.533Z,0.00
2022-12-08T03:30:29.716Z,0.00
2022-12-08T03:31:29.790Z,0.00
2022-12-08T03:32:29.681Z,0.00
2022-12-08T03:33:30.458Z,0.00
2022-12-08T03:34:29.726Z,0.00
2022-12-08T03:35:31.055Z,0.00
2022-12-08T03:36:29.626Z,0.00
2022-12-08T03:37:29.760Z,0.00
2022-12-08T03:38:29.621Z,0.00
2022-12-08T03:39:29.629Z,0.00
2022-12-08T03:40:29.607Z,0.00
2022-12-08T03:41:29.606Z,0.00
2022-12-08T03:42:29.565Z,0.00
2022-12-08T03:43:29.709Z,0.00
2022-12-08T03:44:29.554Z,0.00
2022-12-08T03:45:30.457Z,0.00
2022-12-08T03:47:16.276Z,0.00
2022-12-08T03:48:18.048Z,0.00
2022-12-08T03:49:17.356Z,0.00
2022-12-08T03:50:17.441Z,0.00
2022-12-08T03:51:18.376Z,0.00
2022-12-08T03:52:17.325Z,0.00
2022-12-08T03:53:17.343Z,0.00
2022-12-08T03:54:18.052Z,0.00
2022-12-08T03:55:17.315Z,0.00
2022-12-08T03:56:17.307Z,0.00
2022-12-08T03:57:17.338Z,0.00
2022-12-08T03:58:17.278Z,0.00
2022-12-08T03:59:17.278Z,0.00
2022-12-08T04:00:18.211Z,0.00
2022-12-08T04:01:17.244Z,0.00
2022-12-08T04:02:18.259Z,0.00
2022-12-08T04:03:17.240Z,0.00
2022-12-08T04:04:18.135Z,0.00
2022-12-08T04:05:17.203Z,0.00
2022-12-08T04:06:17.330Z,0.00
2022-12-08T04:07:17.258Z,0.00
2022-12-08T04:08:17.240Z,0.00
2022-12-08T04:09:17.163Z,0.00
2022-12-08T04:10:17.146Z,0.00
2022-12-08T04:11:17.148Z,0.00
2022-12-08T04:12:17.131Z,0.00
2022-12-08T04:13:17.167Z,0.00
2022-12-08T04:14:17.260Z,0.00
2022-12-08T04:15:17.642Z,0.00
2022-12-08T04:16:17.198Z,0.00
2022-12-08T04:17:17.075Z,0.00
2022-12-08T04:18:17.075Z,0.00
2022-12-08T04:19:17.209Z,0.00
2022-12-08T04:20:17.427Z,0.00
2022-12-08T04:21:17.242Z,0.00
2022-12-08T04:22:17.063Z,0.00
2022-12-08T04:23:17.018Z,0.00
2022-12-08T04:24:17.655Z,0.00
2022-12-08T04:25:17.004Z,0.00
2022-12-08T04:26:17.081Z,0.00
2022-12-08T04:27:18.223Z,0.00
2022-12-08T04:28:16.947Z,0.00
2022-12-08T04:29:17.009Z,0.00
2022-12-08T04:30:16.943Z,0.00
2022-12-08T04:31:16.967Z,0.00
2022-12-08T04:32:16.995Z,0.00
2022-12-08T04:33:17.979Z,0.00
2022-12-08T04:34:16.913Z,0.00
2022-12-08T04:35:16.937Z,0.00
2022-12-08T04:36:17.544Z,0.00
2022-12-08T04:37:16.883Z,0.00
2022-12-08T04:38:17.029Z,0.00
2022-12-08T04:39:17.664Z,0.00
2022-12-08T04:40:16.808Z,0.00
2022-12-08T04:41:16.985Z,0.00
2022-12-08T04:42:16.819Z,0.00
2022-12-08T04:43:17.564Z,0.00
2022-12-08T04:44:16.777Z,0.00
2022-12-08T04:45:16.836Z,0.00
2022-12-08T04:46:16.835Z,0.00
2022-12-08T04:47:16.834Z,0.00
2022-12-08T04:48:16.769Z,0.00
2022-12-08T04:49:16.832Z,0.00
2022-12-08T04:50:16.727Z,0.00
2022-12-08T04:51:16.877Z,0.00
2022-12-08T04:52:16.709Z,0.00
2022-12-08T04:53:16.681Z,0.00
2022-12-08T04:54:17.652Z,0.00
2022-12-08T04:55:16.701Z,0.00
2022-12-08T04:56:16.669Z,0.00
2022-12-08T04:57:16.698Z,0.00
2022-12-08T04:58:16.631Z,0.00
2022-12-08T04:59:16.700Z,0.00
2022-12-08T05:00:16.644Z,0.00
2022-12-08T05:01:16.653Z,0.00
2022-12-08T05:02:16.725Z,0.00
2022-12-08T05:03:16.651Z,0.00
2022-12-08T05:04:17.531Z,0.00
2022-12-08T05:05:17.169Z,0.00
2022-12-08T05:06:16.540Z,0.00
2022-12-08T05:07:16.560Z,0.00
2022-12-08T05:08:16.661Z,0.00
2022-12-08T05:09:17.147Z,0.00
2022-12-08T05:10:17.044Z,0.00
2022-12-08T05:11:16.592Z,0.00
2022-12-08T05:12:16.744Z,0.00
2022-12-08T05:13:16.477Z,0.00
2022-12-08T05:14:16.492Z,0.00
2022-12-08T05:15:17.089Z,0.00
2022-12-08T05:16:16.527Z,0.00
2022-12-08T05:17:18.035Z,0.00
2022-12-08T05:18:17.496Z,0.00
2022-12-08T05:19:16.425Z,0.00
2022-12-08T05:20:16.667Z,0.00
2022-12-08T05:21:16.389Z,0.00
2022-12-08T05:22:16.388Z,0.00
2022-12-08T05:23:16.357Z,0.00
2022-12-08T05:24:16.367Z,0.00
2022-12-08T05:25:16.396Z,0.00
2022-12-08T05:26:16.339Z,0.00
2022-12-08T05:27:16.349Z,0.00
2022-12-08T05:28:40.127Z,0.00
2022-12-08T05:29:18.372Z,0.00
2022-12-08T05:30:16.297Z,0.00
2022-12-08T05:31:16.396Z,0.00
2022-12-08T05:32:16.302Z,0.00
2022-12-08T05:33:16.249Z,0.00
2022-12-08T05:34:16.241Z,0.00
2022-12-08T05:35:16.316Z,0.00
2022-12-08T05:36:16.234Z,0.00
2022-12-08T05:37:16.233Z,0.00
2022-12-08T05:38:17.162Z,0.00
2022-12-08T05:39:16.213Z,0.00
2022-12-08T05:40:16.217Z,0.00
2022-12-08T05:41:17.029Z,0.00
2022-12-08T05:42:20.493Z,0.00
2022-12-08T05:43:17.189Z,0.00
2022-12-08T05:44:16.213Z,0.00
2022-12-08T05:45:17.149Z,0.00
2022-12-08T05:46:16.301Z,0.00
2022-12-08T05:47:16.195Z,0.00
2022-12-08T05:48:16.398Z,0.00
2022-12-08T05:49:16.097Z,0.00
2022-12-08T05:50:16.150Z,0.00
2022-12-08T05:51:16.214Z,0.00
2022-12-08T05:52:17.018Z,0.00
2022-12-08T05:53:16.044Z,0.00
2022-12-08T05:54:16.041Z,0.00
2022-12-08T05:55:16.017Z,0.00
2022-12-08T05:56:17.088Z,0.00
2022-12-08T05:57:16.270Z,0.00
2022-12-08T05:58:15.998Z,0.00
2022-12-08T05:59:15.991Z,0.00
2022-12-08T06:00:15.958Z,0.00
2022-12-08T06:01:16.535Z,0.00
2022-12-08T06:02:17.048Z,0.00
2022-12-08T06:03:16.074Z,0.00
2022-12-08T06:04:15.933Z,0.00
2022-12-08T06:05:15.907Z,0.00
2022-12-08T06:06:15.890Z,0.00
2022-12-08T06:07:16.610Z,0.00
2022-12-08T06:08:16.726Z,0.00
2022-12-08T06:09:15.881Z,0.00
2022-12-08T06:10:16.778Z,0.00
2022-12-08T06:11:15.842Z,0.00
2022-12-08T06:12:16.434Z,0.00
2022-12-08T06:13:15.855Z,0.00
2022-12-08T06:14:16.594Z,0.00
2022-12-08T06:15:15.881Z,0.00
2022-12-08T06:16:15.917Z,0.00
2022-12-08T06:17:15.844Z,0.00
2022-12-08T06:18:16.551Z,0.00
2022-12-08T06:19:16.618Z,0.00
2022-12-08T06:20:15.771Z,0.00
2022-12-08T06:21:15.852Z,0.00
2022-12-08T06:22:15.766Z,0.00
2022-12-08T06:23:15.748Z,0.00
2022-12-08T06:24:15.721Z,0.00
2022-12-08T06:25:15.694Z,0.00
2022-12-08T06:26:16.651Z,0.00
2022-12-08T06:27:15.751Z,0.00
2022-12-08T06:28:15.683Z,0.00
2022-12-08T06:29:15.656Z,0.00
2022-12-08T06:30:48.056Z,0.00
2022-12-08T06:31:15.624Z,0.00
2022-12-08T06:32:15.770Z,0.00
2022-12-08T06:33:15.618Z,0.00
2022-12-08T06:34:15.587Z,0.00
2022-12-08T06:35:15.595Z,0.00
2022-12-08T06:36:15.559Z,0.00
2022-12-08T06:37:15.583Z,0.00
2022-12-08T06:38:15.579Z,0.00
2022-12-08T06:39:15.708Z,0.00
2022-12-08T06:40:15.519Z,0.00
2022-12-08T06:41:15.522Z,0.00
2022-12-08T06:42:15.650Z,0.00
2022-12-08T06:43:15.508Z,0.00
2022-12-08T06:44:15.517Z,4.00
2022-12-08T06:45:15.477Z,4.00
2022-12-08T06:46:15.546Z,0.00
2022-12-08T06:47:15.445Z,4.00
2022-12-08T06:48:15.460Z,4.00
2022-12-08T06:49:15.413Z,4.00
2022-12-08T06:50:15.444Z,4.00
2022-12-08T06:51:15.468Z,4.00
2022-12-08T06:52:15.444Z,8.00
2022-12-08T06:53:15.395Z,8.00
2022-12-08T06:54:15.387Z,12.00
2022-12-08T06:55:35.344Z,12.00
2022-12-08T06:56:17.386Z,16.00
2022-12-08T06:57:15.341Z,20.00
2022-12-08T06:58:15.338Z,24.00
2022-12-08T06:59:15.344Z,28.00
2022-12-08T07:00:15.315Z,36.00
2022-12-08T07:01:15.349Z,40.00
2022-12-08T07:02:15.422Z,44.00
2022-12-08T07:03:15.339Z,48.00
2022-12-08T07:04:15.265Z,56.00
2022-12-08T07:05:15.273Z,56.00
2022-12-08T07:06:15.274Z,64.00
2022-12-08T07:07:15.238Z,64.00
2022-12-08T07:08:15.354Z,72.00
2022-12-08T07:09:15.325Z,80.00
2022-12-08T07:10:15.322Z,84.00
2022-12-08T07:11:20.923Z,92.00
2022-12-08T07:12:17.207Z,88.00
2022-12-08T07:13:15.167Z,92.00
2022-12-08T07:14:15.197Z,96.00
2022-12-08T07:15:15.177Z,92.00
2022-12-08T07:16:15.274Z,92.00
2022-12-08T07:17:15.180Z,104.00
2022-12-08T07:18:15.119Z,124.00
2022-12-08T07:19:15.175Z,144.00
2022-12-08T07:20:15.113Z,164.00
2022-12-08T07:21:15.113Z,184.00
2022-12-08T07:22:15.116Z,184.00
2022-12-08T07:23:15.086Z,176.00
2022-12-08T07:24:15.110Z,184.00
2022-12-08T07:25:15.055Z,200.00
2022-12-08T07:26:15.059Z,228.00
2022-12-08T07:27:16.106Z,264.00
2022-12-08T07:28:15.103Z,308.00
2022-12-08T07:29:14.991Z,356.00
2022-12-08T07:30:15.047Z,376.00
2022-12-08T07:31:15.077Z,368.00
2022-12-08T07:32:14.975Z,360.00
2022-12-08T07:33:15.008Z,392.00
2022-12-08T07:34:14.934Z,416.00
2022-12-08T07:35:14.971Z,428.00
2022-12-08T07:36:14.930Z,456.00
2022-12-08T07:37:14.939Z,488.00
2022-12-08T07:38:14.892Z,508.00
2022-12-08T07:39:14.888Z,504.00
2022-12-08T07:40:14.887Z,496.00
2022-12-08T07:41:14.955Z,516.00
2022-12-08T07:42:14.840Z,548.00
2022-12-08T07:43:14.857Z,580.00
2022-12-08T07:44:14.837Z,632.00
2022-12-08T07:45:14.826Z,676.00
2022-12-08T07:46:14.836Z,700.00
2022-12-08T07:47:14.863Z,716.00
2022-12-08T07:48:14.792Z,732.00
2022-12-08T07:49:14.780Z,756.00
2022-12-08T07:50:14.770Z,804.00
2022-12-08T07:51:14.812Z,860.00
2022-12-08T07:52:14.782Z,924.00
2022-12-08T07:53:14.762Z,944.00
2022-12-08T07:54:14.737Z,936.00
2022-12-08T07:55:14.696Z,948.00
2022-12-08T07:56:15.704Z,948.00
2022-12-08T07:57:14.680Z,968.00
2022-12-08T07:58:14.712Z,996.00
2022-12-08T07:59:14.701Z,1012.00
2022-12-08T08:00:15.205Z,1000.00
2022-12-08T08:01:14.822Z,984.00
2022-12-08T08:02:24.086Z,980.00
2022-12-08T08:03:16.694Z,1044.00
2022-12-08T08:04:14.685Z,1104.00
2022-12-08T08:05:14.660Z,1148.00
2022-12-08T08:06:14.624Z,1172.00
2022-12-08T08:07:14.605Z,1152.00
2022-12-08T08:08:14.608Z,1116.00
2022-12-08T08:09:14.573Z,1084.00
2022-12-08T08:10:14.833Z,1080.00
2022-12-08T08:11:20.824Z,1112.00
2022-12-08T08:12:32.784Z,1112.00
2022-12-08T08:13:16.531Z,1108.00
2022-12-08T08:14:14.517Z,1088.00
2022-12-08T08:15:15.092Z,1092.00
2022-12-08T08:16:14.610Z,1156.00
2022-12-08T08:17:14.561Z,1120.00
2022-12-08T08:18:14.486Z,1124.00
2022-12-08T08:19:14.508Z,1216.00
2022-12-08T08:20:14.517Z,1216.00
2022-12-08T08:21:45.101Z,1280.00
2022-12-08T08:22:16.453Z,1348.00
2022-12-08T08:23:14.422Z,1428.00
2022-12-08T08:24:14.417Z,1504.00
2022-12-08T08:25:14.470Z,1488.00
2022-12-08T08:26:14.435Z,1512.00
2022-12-08T08:27:14.393Z,1468.00
2022-12-08T08:28:15.158Z,1504.00
2022-12-08T08:29:14.390Z,1580.00
2022-12-08T08:30:20.067Z,1588.00
2022-12-08T08:31:16.389Z,1564.00
2022-12-08T08:32:14.331Z,1536.00
2022-12-08T08:33:14.346Z,1496.00
2022-12-08T08:34:14.551Z,1492.00
2022-12-08T08:35:14.282Z,1504.00
2022-12-08T08:36:14.318Z,1456.00
2022-12-08T08:37:14.307Z,1376.00
2022-12-08T08:38:14.328Z,1296.00
2022-12-08T08:39:14.319Z,1184.00
2022-12-08T08:40:14.412Z,1136.00
2022-12-08T08:41:14.263Z,1056.00
2022-12-08T08:42:14.279Z,920.00
2022-12-08T08:43:14.217Z,876.00
2022-12-08T08:44:14.268Z,912.00
2022-12-08T08:45:14.193Z,964.00
2022-12-08T08:46:14.243Z,996.00
2022-12-08T08:47:14.191Z,996.00
2022-12-08T08:48:14.179Z,1016.00
2022-12-08T08:49:14.170Z,1040.00
2022-12-08T08:50:14.151Z,1084.00
2022-12-08T08:51:14.152Z,1108.00
2022-12-08T08:52:14.116Z,1072.00
2022-12-08T08:53:14.159Z,1120.00
2022-12-08T08:54:14.090Z,1236.00
2022-12-08T08:55:14.088Z,1336.00
2022-12-08T08:56:14.080Z,1256.00
2022-12-08T08:57:14.063Z,1172.00
2022-12-08T08:58:14.064Z,1068.00
2022-12-08T08:59:15.090Z,960.00
2022-12-08T09:00:14.048Z,916.00
2022-12-08T09:01:14.061Z,868.00
2022-12-08T09:02:14.108Z,804.00
2022-12-08T09:03:14.059Z,736.00
2022-12-08T09:04:14.695Z,740.00
2022-12-08T09:05:14.068Z,760.00
2022-12-08T09:06:14.700Z,700.00
2022-12-08T09:07:14.606Z,652.00
2022-12-08T09:08:14.047Z,648.00
2022-12-08T09:09:13.989Z,644.00
2022-12-08T09:10:14.020Z,632.00
2022-12-08T09:11:14.079Z,588.00
2022-12-08T09:12:13.937Z,624.00
2022-12-08T09:13:13.881Z,636.00
2022-12-08T09:14:13.929Z,636.00
2022-12-08T09:15:13.886Z,648.00
2022-12-08T09:16:13.925Z,668.00
2022-12-08T09:17:13.949Z,728.00
2022-12-08T09:18:14.604Z,720.00
2022-12-08T09:19:13.832Z,792.00
2022-12-08T09:20:13.878Z,800.00
2022-12-08T09:21:13.789Z,700.00
2022-12-08T09:22:13.817Z,644.00
2022-12-08T09:23:13.807Z,656.00
2022-12-08T09:24:13.789Z,656.00
2022-12-08T09:25:13.790Z,716.00
2022-12-08T09:26:13.736Z,856.00
2022-12-08T09:27:13.766Z,840.00
2022-12-08T09:28:13.781Z,792.00
2022-12-08T09:29:13.775Z,772.00
2022-12-08T09:30:13.719Z,736.00
2022-12-08T09:31:13.784Z,808.00
2022-12-08T09:32:13.750Z,892.00
2022-12-08T09:33:13.742Z,976.00
2022-12-08T09:34:13.698Z,1028.00
2022-12-08T09:35:14.628Z,1056.00
2022-12-08T09:36:13.629Z,1076.00
2022-12-08T09:37:13.641Z,1112.00
2022-12-08T09:38:13.650Z,964.00
2022-12-08T09:39:13.618Z,1056.00
2022-12-08T09:40:13.602Z,1204.00
2022-12-08T09:41:13.667Z,1172.00
2022-12-08T09:42:14.605Z,1068.00
2022-12-08T09:43:13.663Z,1148.00
2022-12-08T09:44:13.653Z,1188.00
2022-12-08T09:45:13.577Z,1188.00
2022-12-08T09:46:13.561Z,1260.00
2022-12-08T09:47:13.847Z,1280.00
2022-12-08T09:48:13.577Z,1228.00
2022-12-08T09:49:13.548Z,1232.00
2022-12-08T09:50:13.491Z,1252.00
2022-12-08T09:51:13.532Z,1320.00
2022-12-08T09:52:13.466Z,1236.00
2022-12-08T09:53:13.519Z,1204.00
2022-12-08T09:54:13.448Z,1168.00
2022-12-08T09:55:13.446Z,1128.00
2022-12-08T09:56:13.475Z,1188.00
2022-12-08T09:57:13.429Z,1152.00
2022-12-08T09:58:13.395Z,1188.00
2022-12-08T09:59:13.398Z,1268.00
2022-12-08T10:00:13.415Z,1324.00
2022-12-08T10:01:13.399Z,1352.00
2022-12-08T10:02:13.433Z,1364.00
2022-12-08T10:03:16.702Z,1380.00
2022-12-08T10:04:14.345Z,1284.00
2022-12-08T10:05:13.430Z,1312.00
2022-12-08T10:06:13.329Z,1324.00
2022-12-08T10:07:13.294Z,1232.00
2022-12-08T10:08:13.442Z,1180.00
2022-12-08T10:09:17.166Z,1056.00
2022-12-08T10:10:14.316Z,964.00
2022-12-08T10:11:13.269Z,944.00
2022-12-08T10:12:13.403Z,936.00
2022-12-08T10:13:13.305Z,984.00
2022-12-08T10:14:13.234Z,972.00
2022-12-08T10:15:13.243Z,944.00
2022-12-08T10:16:21.195Z,964.00
2022-12-08T10:17:14.296Z,892.00
2022-12-08T10:18:13.183Z,872.00
2022-12-08T10:19:13.173Z,812.00
2022-12-08T10:20:13.189Z,864.00
2022-12-08T10:21:13.221Z,912.00
2022-12-08T10:22:13.151Z,988.00
2022-12-08T10:23:13.139Z,1044.00
2022-12-08T10:24:13.132Z,1184.00
2022-12-08T10:25:13.172Z,1332.00
2022-12-08T10:26:13.129Z,1392.00
2022-12-08T10:27:13.106Z,1448.00
2022-12-08T10:28:13.125Z,1616.00
2022-12-08T10:29:13.097Z,1828.00
2022-12-08T10:30:13.324Z,1892.00
2022-12-08T10:31:13.085Z,2080.00
2022-12-08T10:32:13.070Z,2112.00
2022-12-08T10:33:13.027Z,2076.00
2022-12-08T10:34:13.029Z,2020.00
2022-12-08T10:35:13.036Z,1864.00
2022-12-08T10:36:13.028Z,1640.00
2022-12-08T10:37:13.017Z,1536.00
2022-12-08T10:38:13.013Z,1556.00
2022-12-08T10:39:12.973Z,1676.00
2022-12-08T10:40:12.962Z,1688.00
2022-12-08T10:41:12.972Z,1748.00
2022-12-08T10:42:12.973Z,1852.00
2022-12-08T10:43:12.991Z,1868.00
2022-12-08T10:44:13.033Z,2028.00
2022-12-08T10:45:12.905Z,2120.00
2022-12-08T10:46:13.040Z,2392.00
2022-12-08T10:47:12.970Z,2360.00
2022-12-08T10:48:13.010Z,2248.00
2022-12-08T10:49:12.895Z,2328.00
2022-12-08T10:50:12.873Z,2136.00
2022-12-08T10:51:12.861Z,2116.00
2022-12-08T10:52:12.823Z,2172.00
2022-12-08T10:53:12.824Z,2368.00
2022-12-08T10:54:13.756Z,2692.00
2022-12-08T10:55:12.844Z,2568.00
2022-12-08T10:56:12.781Z,2508.00
2022-12-08T10:57:12.811Z,2528.00
2022-12-08T10:58:12.759Z,2484.00
2022-12-08T10:59:12.792Z,2348.00
2022-12-08T11:00:14.423Z,2204.00
2022-12-08T11:01:14.776Z,2264.00
2022-12-08T11:02:12.877Z,2492.00
2022-12-08T11:03:12.727Z,2528.00
2022-12-08T11:04:12.697Z,2176.00
2022-12-08T11:05:12.702Z,1844.00
2022-12-08T11:06:12.685Z,1904.00
2022-12-08T11:07:12.683Z,2100.00
2022-12-08T11:08:12.743Z,2152.00
2022-12-08T11:09:12.707Z,2180.00
2022-12-08T11:10:12.626Z,2244.00
2022-12-08T11:11:12.668Z,2352.00
2022-12-08T11:12:12.639Z,2224.00
2022-12-08T11:13:12.728Z,2192.00
2022-12-08T11:14:12.664Z,2220.00
2022-12-08T11:15:12.627Z,2420.00
2022-12-08T11:16:12.610Z,2360.00
2022-12-08T11:17:12.553Z,2444.00
2022-12-08T11:18:12.540Z,2616.00
2022-12-08T11:19:12.589Z,2736.00
2022-12-08T11:20:12.562Z,2764.00
2022-12-08T11:21:12.602Z,2748.00
2022-12-08T11:22:12.560Z,2464.00
2022-12-08T11:23:12.571Z,2304.00
2022-12-08T11:24:13.092Z,2140.00
2022-12-08T11:25:12.501Z,2240.00
2022-12-08T11:26:12.511Z,2488.00
2022-12-08T11:27:12.467Z,2560.00
2022-12-08T11:28:12.434Z,2812.00
2022-12-08T11:29:12.443Z,2536.00
2022-12-08T11:30:14.567Z,2216.00
2022-12-08T11:31:13.473Z,2204.00
2022-12-08T11:32:12.484Z,2392.00
2022-12-08T11:33:12.402Z,2592.00
2022-12-08T11:34:12.410Z,2648.00
2022-12-08T11:35:12.383Z,2604.00
2022-12-08T11:36:12.351Z,2756.00
2022-12-08T11:37:12.395Z,2860.00
2022-12-08T11:38:21.448Z,2684.00
2022-12-08T11:39:14.399Z,2512.00
2022-12-08T11:40:12.346Z,2460.00
2022-12-08T11:41:16.030Z,2556.00
2022-12-08T11:42:12.329Z,2808.00
2022-12-08T11:43:12.356Z,2776.00
2022-12-08T11:44:12.370Z,2684.00
2022-12-08T11:45:12.319Z,2732.00
2022-12-08T11:46:12.308Z,2696.00
2022-12-08T11:47:12.256Z,3152.00
2022-12-08T11:48:12.248Z,3928.00
2022-12-08T11:49:12.275Z,4004.00
2022-12-08T11:50:16.611Z,3776.00
2022-12-08T11:51:13.247Z,3616.00
2022-12-08T11:52:12.211Z,3912.00
2022-12-08T11:53:12.211Z,3732.00
2022-12-08T11:54:12.180Z,3700.00
2022-12-08T11:55:13.152Z,3888.00
2022-12-08T11:56:12.154Z,4064.00
2022-12-08T11:57:12.157Z,3956.00
2022-12-08T11:58:12.194Z,3960.00
2022-12-08T11:59:12.128Z,3832.00
2022-12-08T12:00:13.108Z,3568.00
2022-12-08T12:01:12.125Z,3264.00
2022-12-08T12:02:12.140Z,3064.00
2022-12-08T12:03:44.528Z,2808.00
2022-12-08T12:04:12.075Z,2624.00
2022-12-08T12:05:12.073Z,2600.00
2022-12-08T12:06:30.435Z,2716.00
2022-12-08T12:07:14.119Z,2728.00
2022-12-08T12:08:12.149Z,2692.00
2022-12-08T12:09:12.040Z,2496.00
2022-12-08T12:10:12.006Z,2232.00
2022-12-08T12:11:13.645Z,2072.00
2022-12-08T12:12:12.119Z,2136.00
2022-12-08T12:13:12.620Z,2252.00
2022-12-08T12:14:12.044Z,2140.00
2022-12-08T12:15:11.968Z,2264.00
2022-12-08T12:16:12.019Z,2484.00
2022-12-08T12:17:12.573Z,2460.00
2022-12-08T12:18:16.521Z,2292.00
2022-12-08T12:19:13.068Z,2176.00
2022-12-08T12:20:12.537Z,2192.00
2022-12-08T12:21:11.903Z,2344.00
2022-12-08T12:22:12.021Z,2428.00
2022-12-08T12:23:12.997Z,2272.00
2022-12-08T12:24:13.522Z,2028.00
2022-12-08T12:25:12.522Z,1956.00
2022-12-08T12:26:11.924Z,2244.00
2022-12-08T12:27:12.550Z,2176.00
2022-12-08T12:28:11.836Z,1996.00
2022-12-08T12:29:11.962Z,1840.00
2022-12-08T12:30:11.861Z,1804.00
2022-12-08T12:31:11.953Z,2088.00
2022-12-08T12:32:12.485Z,2256.00
2022-12-08T12:33:11.801Z,2228.00
2022-12-08T12:34:15.519Z,2312.00
2022-12-08T12:35:12.510Z,2340.00
2022-12-08T12:36:12.914Z,2096.00
2022-12-08T12:37:11.772Z,1924.00
2022-12-08T12:38:12.602Z,1948.00
2022-12-08T12:39:11.759Z,1960.00
2022-12-08T12:40:13.560Z,1888.00
2022-12-08T12:41:11.743Z,1912.00
2022-12-08T12:42:12.718Z,1908.00
2022-12-08T12:43:14.441Z,1960.00
2022-12-08T12:44:11.693Z,2100.00
2022-12-08T12:45:12.985Z,2160.00
2022-12-08T12:46:13.527Z,2240.00
2022-12-08T12:47:12.595Z,2316.00
2022-12-08T12:48:11.654Z,2332.00